createdAt,value
2023-03-16T00:00:13.864Z,4.43
2023-03-16T00:02:42.630Z,4.93
2023-03-16T00:05:13.305Z,5.05
2023-03-16T00:07:42.040Z,4.20
2023-03-16T00:10:10.136Z,3.95
2023-03-16T00:12:36.631Z,3.80
2023-03-16T00:15:04.618Z,3.75
2023-03-16T00:17:31.531Z,3.40
2023-03-16T00:19:58.190Z,3.42
2023-03-16T00:22:29.917Z,4.32
2023-03-16T00:24:57.048Z,4.93
2023-03-16T00:27:25.530Z,4.68
2023-03-16T00:29:56.391Z,4.60
2023-03-16T00:32:30.297Z,5.00
2023-03-16T00:34:57.086Z,4.60
2023-03-16T00:37:25.962Z,4.05
2023-03-16T00:39:56.289Z,4.10
2023-03-16T00:42:29.466Z,4.20
2023-03-16T00:45:00.474Z,4.45
2023-03-16T00:47:32.836Z,4.13
2023-03-16T00:50:01.108Z,3.83
2023-03-16T00:52:28.949Z,5.13
2023-03-16T00:54:56.315Z,4.47
2023-03-16T00:57:25.392Z,4.13
2023-03-16T00:59:53.172Z,4.47
2023-03-16T01:02:23.650Z,4.80
2023-03-16T01:04:51.965Z,4.00
2023-03-16T01:07:18.798Z,5.05
2023-03-16T01:09:45.757Z,4.63
2023-03-16T01:12:15.853Z,4.72
2023-03-16T01:14:45.960Z,4.28
2023-03-16T01:17:14.053Z,4.65
2023-03-16T01:19:41.600Z,5.00
2023-03-16T01:22:09.896Z,4.95
2023-03-16T01:24:37.893Z,4.35
2023-03-16T01:27:05.507Z,4.20
2023-03-16T01:29:33.081Z,4.32
2023-03-16T01:32:00.645Z,4.22
2023-03-16T01:34:27.285Z,4.07
2023-03-16T01:36:54.121Z,5.47
2023-03-16T01:39:20.627Z,7.35
2023-03-16T01:41:47.842Z,7.70
2023-03-16T01:44:20.246Z,5.57
2023-03-16T01:46:46.732Z,4.57
2023-03-16T01:49:30.360Z,4.53
2023-03-16T01:52:01.411Z,4.43
2023-03-16T01:54:46.980Z,4.97
2023-03-16T01:57:20.411Z,5.47
2023-03-16T02:00:11.157Z,5.95
2023-03-16T02:02:43.766Z,5.25
2023-03-16T02:05:19.738Z,6.20
2023-03-16T02:07:51.391Z,6.25
2023-03-16T02:10:20.396Z,5.20
2023-03-16T02:12:47.487Z,6.07
2023-03-16T02:15:15.171Z,6.15
2023-03-16T02:17:44.240Z,6.68
2023-03-16T02:20:19.955Z,6.18
2023-03-16T02:22:48.797Z,6.45
2023-03-16T02:25:18.488Z,5.50
2023-03-16T02:28:10.857Z,5.25
2023-03-16T02:30:37.419Z,6.13
2023-03-16T02:33:05.306Z,5.88
2023-03-16T02:35:32.435Z,6.28
2023-03-16T02:37:59.156Z,5.95
2023-03-16T02:40:30.310Z,6.07
2023-03-16T02:43:17.273Z,6.18
2023-03-16T02:45:48.980Z,5.80
2023-03-16T02:48:24.353Z,5.63
2023-03-16T02:50:53.553Z,5.00
2023-03-16T02:53:21.316Z,5.18
2023-03-16T02:55:47.854Z,5.53
2023-03-16T02:58:15.178Z,5.05
2023-03-16T03:00:46.198Z,5.63
2023-03-16T03:03:14.214Z,6.28
2023-03-16T03:05:40.933Z,6.50
2023-03-16T03:08:07.698Z,5.65
2023-03-16T03:10:34.483Z,5.95
2023-03-16T03:13:01.164Z,6.07
2023-03-16T03:15:27.891Z,6.30
2023-03-16T03:17:54.359Z,5.97
2023-03-16T03:20:21.748Z,6.53
2023-03-16T03:22:52.873Z,5.65
2023-03-16T03:25:21.184Z,5.95
2023-03-16T03:27:50.217Z,5.40
2023-03-16T03:30:20.060Z,6.00
2023-03-16T03:32:46.636Z,5.95
2023-03-16T03:35:15.166Z,6.30
2023-03-16T03:37:42.837Z,6.18
2023-03-16T03:40:11.755Z,5.65
2023-03-16T03:42:39.457Z,5.95
2023-03-16T03:45:07.996Z,5.50
2023-03-16T03:47:34.954Z,5.72
2023-03-16T03:50:01.563Z,5.57
2023-03-16T03:52:28.743Z,5.40
2023-03-16T03:54:55.424Z,6.05
2023-03-16T03:57:22.078Z,5.65
2023-03-16T03:59:48.610Z,5.95
2023-03-16T04:02:15.551Z,5.82
2023-03-16T04:04:42.786Z,6.38
2023-03-16T04:07:09.629Z,6.78
2023-03-16T04:09:36.342Z,6.53
2023-03-16T04:12:05.002Z,6.50
2023-03-16T04:14:32.052Z,6.20
2023-03-16T04:16:58.642Z,6.40
2023-03-16T04:19:26.032Z,6.60
2023-03-16T04:21:52.854Z,6.65
2023-03-16T04:24:19.688Z,6.05
2023-03-16T04:26:46.522Z,7.65
2023-03-16T04:29:18.032Z,8.05
2023-03-16T04:31:45.426Z,9.02
2023-03-16T04:34:13.582Z,10.05
2023-03-16T04:36:42.181Z,10.43
2023-03-16T04:39:10.475Z,10.20
2023-03-16T04:41:37.458Z,10.27
2023-03-16T04:44:04.813Z,12.77
2023-03-16T04:46:32.757Z,14.15
2023-03-16T04:48:59.271Z,13.07
2023-03-16T04:51:26.997Z,16.90
2023-03-16T04:53:54.082Z,15.77
2023-03-16T04:56:21.234Z,13.10
2023-03-16T04:58:50.176Z,14.25
2023-03-16T05:01:18.664Z,13.82
2023-03-16T05:03:45.689Z,15.75
2023-03-16T05:06:12.591Z,14.93
2023-03-16T05:08:40.818Z,15.07
2023-03-16T05:11:07.588Z,13.30
2023-03-16T05:13:34.421Z,13.18
2023-03-16T05:16:00.976Z,15.15
2023-03-16T05:18:30.240Z,14.57
2023-03-16T05:20:57.178Z,13.25
2023-03-16T05:23:24.035Z,13.20
2023-03-16T05:25:50.868Z,12.20
2023-03-16T05:28:17.413Z,10.90
2023-03-16T05:30:45.396Z,12.38
2023-03-16T05:33:12.574Z,11.15
2023-03-16T05:35:39.345Z,12.43
2023-03-16T05:38:06.661Z,11.68
2023-03-16T05:40:33.426Z,12.07
2023-03-16T05:43:00.639Z,12.40
2023-03-16T05:45:28.093Z,12.43
2023-03-16T05:47:54.630Z,10.70
2023-03-16T05:50:21.394Z,12.43
2023-03-16T05:52:49.220Z,11.65
2023-03-16T05:55:17.497Z,11.52
2023-03-16T05:57:44.534Z,10.88
2023-03-16T06:00:19.698Z,11.25
2023-03-16T06:02:49.516Z,10.30
2023-03-16T06:05:20.794Z,10.13
2023-03-16T06:07:48.405Z,10.38
2023-03-16T06:10:15.004Z,9.15
2023-03-16T06:12:42.116Z,9.48
2023-03-16T06:15:10.324Z,8.48
2023-03-16T06:17:38.412Z,8.68
2023-03-16T06:20:11.342Z,8.30
2023-03-16T06:22:39.745Z,9.05
2023-03-16T06:25:08.011Z,9.10
2023-03-16T06:27:34.534Z,8.75
2023-03-16T06:30:01.611Z,8.18
2023-03-16T06:32:28.591Z,9.07
2023-03-16T06:34:55.857Z,8.85
2023-03-16T06:37:22.342Z,9.32
2023-03-16T06:39:48.861Z,9.25
2023-03-16T06:42:15.601Z,9.18
2023-03-16T06:44:43.157Z,9.40
2023-03-16T06:47:10.649Z,9.30
2023-03-16T06:49:37.592Z,9.23
2023-03-16T06:52:04.116Z,9.20
2023-03-16T06:54:32.501Z,8.88
2023-03-16T06:56:59.106Z,9.57
2023-03-16T06:59:25.681Z,8.85
2023-03-16T07:01:52.195Z,9.07
2023-03-16T07:04:18.771Z,9.90
2023-03-16T07:06:45.345Z,11.45
2023-03-16T07:09:12.586Z,11.90
2023-03-16T07:11:40.134Z,10.73
2023-03-16T07:14:06.720Z,10.02
2023-03-16T07:16:33.474Z,9.63
2023-03-16T07:18:59.927Z,10.15
2023-03-16T07:21:26.391Z,9.73
2023-03-16T07:23:52.924Z,9.85
2023-03-16T07:26:19.969Z,10.30
2023-03-16T07:28:46.593Z,10.73
2023-03-16T07:31:14.778Z,11.20
2023-03-16T07:33:41.298Z,10.40
2023-03-16T07:36:10.728Z,9.98
2023-03-16T07:38:37.739Z,11.52
2023-03-16T07:41:04.371Z,10.02
2023-03-16T07:43:31.067Z,12.23
2023-03-16T07:45:57.754Z,10.80
2023-03-16T07:48:24.493Z,11.10
2023-03-16T07:50:51.017Z,11.23
2023-03-16T07:53:17.826Z,10.45
2023-03-16T07:55:44.765Z,10.90
2023-03-16T07:58:12.141Z,10.77
2023-03-16T08:00:39.757Z,11.73
2023-03-16T08:03:06.913Z,10.70
2023-03-16T08:05:33.608Z,11.75
2023-03-16T08:08:01.816Z,11.85
2023-03-16T08:10:29.507Z,10.93
2023-03-16T08:12:56.354Z,12.48
2023-03-16T08:15:23.806Z,10.90
2023-03-16T08:17:50.421Z,11.77
2023-03-16T08:20:16.974Z,12.23
2023-03-16T08:22:46.486Z,11.70
2023-03-16T08:25:16.205Z,13.32
2023-03-16T08:27:43.324Z,12.23
2023-03-16T08:30:11.853Z,12.40
2023-03-16T08:32:41.931Z,12.45
2023-03-16T08:35:11.134Z,12.50
2023-03-16T08:37:37.653Z,11.38
2023-03-16T08:40:06.754Z,12.05
2023-03-16T08:42:33.288Z,13.25
2023-03-16T08:45:01.006Z,12.27
2023-03-16T08:47:27.585Z,15.07
2023-03-16T08:49:54.036Z,13.00
2023-03-16T08:52:21.001Z,12.63
2023-03-16T08:55:02.050Z,11.52
2023-03-16T08:57:29.735Z,12.15
2023-03-16T08:59:56.172Z,11.57
2023-03-16T09:02:22.657Z,11.90
2023-03-16T09:04:50.509Z,12.30
2023-03-16T09:07:17.105Z,12.23
2023-03-16T09:09:44.045Z,11.85
2023-03-16T09:12:11.406Z,11.50
2023-03-16T09:14:38.774Z,11.10
2023-03-16T09:17:08.849Z,13.43
2023-03-16T09:19:53.201Z,12.10
2023-03-16T09:22:21.432Z,11.75
2023-03-16T09:24:48.934Z,12.80
2023-03-16T09:27:16.031Z,12.93
2023-03-16T09:29:43.404Z,11.75
2023-03-16T09:32:10.273Z,11.32
2023-03-16T09:34:37.126Z,11.90
2023-03-16T09:37:03.793Z,12.27
2023-03-16T09:39:30.280Z,11.93
2023-03-16T09:42:24.326Z,10.82
2023-03-16T09:45:06.213Z,10.20
2023-03-16T09:47:36.030Z,10.48
2023-03-16T09:50:08.699Z,10.07
2023-03-16T09:52:44.765Z,10.50
2023-03-16T09:55:25.363Z,9.13
2023-03-16T09:57:53.527Z,10.25
2023-03-16T10:00:21.746Z,10.25
2023-03-16T10:03:16.043Z,10.23
2023-03-16T10:05:42.521Z,9.38
2023-03-16T10:08:14.016Z,9.55
2023-03-16T10:11:03.541Z,9.85
2023-03-16T10:13:37.500Z,9.70
2023-03-16T10:16:17.736Z,8.67
2023-03-16T10:18:49.704Z,8.80
2023-03-16T10:21:20.945Z,9.40
2023-03-16T10:23:49.794Z,8.68
2023-03-16T10:26:23.020Z,8.88
2023-03-16T10:28:49.551Z,8.93
2023-03-16T10:31:18.753Z,8.23
2023-03-16T10:33:46.146Z,7.97
2023-03-16T10:36:25.422Z,7.72
2023-03-16T10:39:00.231Z,8.68
2023-03-16T10:41:38.496Z,7.93
2023-03-16T10:44:28.592Z,8.13
2023-03-16T10:47:08.548Z,9.80
2023-03-16T10:49:44.342Z,10.00
2023-03-16T10:52:19.893Z,8.13
2023-03-16T10:55:01.351Z,7.23
2023-03-16T10:57:33.707Z,7.65
2023-03-16T11:00:21.533Z,7.57
2023-03-16T11:02:49.392Z,7.63
2023-03-16T11:05:25.799Z,7.25
2023-03-16T11:08:09.414Z,7.43
2023-03-16T11:10:49.305Z,7.10
2023-03-16T11:13:21.232Z,8.77
2023-03-16T11:15:58.945Z,6.75
2023-03-16T11:18:33.197Z,7.70
2023-03-16T11:21:08.199Z,8.13
2023-03-16T11:23:39.174Z,9.73
2023-03-16T11:26:15.558Z,7.32
2023-03-16T11:28:54.585Z,7.05
2023-03-16T11:31:33.817Z,8.52
2023-03-16T11:34:01.587Z,7.30
2023-03-16T11:36:44.589Z,7.18
2023-03-16T11:39:40.636Z,8.57
2023-03-16T11:42:36.726Z,6.57
2023-03-16T11:45:17.376Z,7.43
2023-03-16T11:47:56.190Z,7.33
2023-03-16T11:50:30.167Z,6.90
2023-03-16T11:53:18.384Z,6.88
2023-03-16T11:55:57.228Z,6.43
2023-03-16T11:58:57.441Z,6.13
2023-03-16T12:02:10.960Z,5.90
2023-03-16T12:04:40.931Z,6.60
2023-03-16T12:07:22.754Z,6.25
2023-03-16T12:09:58.199Z,7.00
2023-03-16T12:12:37.645Z,6.78
2023-03-16T12:15:24.268Z,6.40
2023-03-16T12:17:55.630Z,6.07
2023-03-16T12:20:31.886Z,5.97
2023-03-16T12:23:06.171Z,5.30
2023-03-16T12:25:38.132Z,5.40
2023-03-16T12:28:11.131Z,6.10
2023-03-16T12:30:53.295Z,5.82
2023-03-16T12:33:58.134Z,5.10
2023-03-16T12:36:49.319Z,5.93
2023-03-16T12:39:35.814Z,4.80
2023-03-16T12:42:30.134Z,4.60
2023-03-16T12:45:02.378Z,4.28
2023-03-16T12:47:50.451Z,5.72
2023-03-16T12:50:19.373Z,5.63
2023-03-16T12:52:50.197Z,5.35
2023-03-16T12:55:23.592Z,5.03
2023-03-16T12:57:58.651Z,4.80
2023-03-16T13:00:35.787Z,4.97
2023-03-16T13:03:03.508Z,5.38
2023-03-16T13:05:34.724Z,4.72
2023-03-16T13:08:21.216Z,5.20
2023-03-16T13:11:11.179Z,4.72
2023-03-16T13:13:52.646Z,5.25
2023-03-16T13:16:27.362Z,5.25
2023-03-16T13:18:54.887Z,4.93
2023-03-16T13:21:41.043Z,4.90
2023-03-16T13:24:35.041Z,5.35
2023-03-16T13:27:06.410Z,5.30
2023-03-16T13:29:33.922Z,4.93
2023-03-16T13:32:06.714Z,4.95
2023-03-16T13:34:39.565Z,5.50
2023-03-16T13:37:14.625Z,4.07
2023-03-16T13:39:41.747Z,4.43
2023-03-16T13:42:08.255Z,4.53
2023-03-16T13:44:39.786Z,4.68
2023-03-16T13:47:07.535Z,4.47
2023-03-16T13:49:43.463Z,4.80
2023-03-16T13:52:18.982Z,4.30
2023-03-16T13:54:45.532Z,4.50
2023-03-16T13:57:13.479Z,5.25
2023-03-16T13:59:43.673Z,4.40
2023-03-16T14:02:22.476Z,5.38
2023-03-16T14:04:49.036Z,4.05
2023-03-16T14:07:18.992Z,4.50
2023-03-16T14:09:47.039Z,4.32
2023-03-16T14:12:15.328Z,4.57
2023-03-16T14:14:42.519Z,4.30
2023-03-16T14:17:24.107Z,3.85
2023-03-16T14:19:57.673Z,3.92
2023-03-16T14:22:31.242Z,4.30
2023-03-16T14:25:00.809Z,3.80
2023-03-16T14:27:39.547Z,3.58
2023-03-16T14:30:15.416Z,3.80
2023-03-16T14:32:42.448Z,4.30
2023-03-16T14:35:17.890Z,3.88
2023-03-16T14:37:45.045Z,4.10
2023-03-16T14:40:32.270Z,3.40
2023-03-16T14:43:00.943Z,3.95
2023-03-16T14:45:32.125Z,3.53
2023-03-16T14:48:07.134Z,4.10
2023-03-16T14:50:34.814Z,4.20
2023-03-16T14:53:04.239Z,3.92
2023-03-16T14:55:31.560Z,4.05
2023-03-16T14:57:58.612Z,3.70
2023-03-16T15:00:26.353Z,3.72
2023-03-16T15:03:00.851Z,3.43
2023-03-16T15:05:42.822Z,3.90
2023-03-16T15:08:28.683Z,4.10
2023-03-16T15:11:00.854Z,4.00
2023-03-16T15:13:53.338Z,4.15
2023-03-16T15:16:22.091Z,3.50
2023-03-16T15:18:48.902Z,3.63
2023-03-16T15:21:20.664Z,3.30
2023-03-16T15:23:47.986Z,3.38
2023-03-16T15:26:18.245Z,4.03
2023-03-16T15:28:45.030Z,3.70
2023-03-16T15:31:14.088Z,3.47
2023-03-16T15:33:41.659Z,4.13
2023-03-16T15:36:20.445Z,3.00
2023-03-16T15:38:49.831Z,3.20
2023-03-16T15:41:17.141Z,4.20
2023-03-16T15:43:45.724Z,3.65
2023-03-16T15:46:15.001Z,3.58
2023-03-16T15:48:41.644Z,3.70
2023-03-16T15:51:21.900Z,3.42
2023-03-16T15:53:54.666Z,2.63
2023-03-16T15:56:29.217Z,3.83
2023-03-16T15:59:00.687Z,2.97
2023-03-16T16:01:32.083Z,3.03
2023-03-16T16:03:59.397Z,2.95
2023-03-16T16:06:27.785Z,2.60
2023-03-16T16:08:54.500Z,3.30
2023-03-16T16:11:28.278Z,3.15
2023-03-16T16:13:57.125Z,4.55
2023-03-16T16:16:27.279Z,6.30
2023-03-16T16:18:53.923Z,5.43
2023-03-16T16:21:24.869Z,4.00
2023-03-16T16:23:51.697Z,2.88
2023-03-16T16:26:49.878Z,2.95
2023-03-16T16:29:23.056Z,2.90
2023-03-16T16:31:52.045Z,2.60
2023-03-16T16:34:21.562Z,3.22
2023-03-16T16:36:48.985Z,3.60
2023-03-16T16:39:15.641Z,3.40
2023-03-16T16:41:42.931Z,3.08
2023-03-16T16:44:24.757Z,3.33
2023-03-16T16:46:52.248Z,3.45
2023-03-16T16:49:23.614Z,3.03
2023-03-16T16:51:51.549Z,3.58
2023-03-16T16:54:20.771Z,3.70
2023-03-16T16:56:48.902Z,3.60
2023-03-16T16:59:20.061Z,3.90
2023-03-16T17:01:48.087Z,3.67
2023-03-16T17:04:18.094Z,3.60
2023-03-16T17:06:46.175Z,4.00
2023-03-16T17:09:14.370Z,9.50
2023-03-16T17:11:42.638Z,7.55
2023-03-16T17:14:14.779Z,7.75
2023-03-16T17:16:41.328Z,6.32
2023-03-16T17:19:18.472Z,5.80
2023-03-16T17:21:45.604Z,4.87
2023-03-16T17:24:12.595Z,5.20
2023-03-16T17:26:43.904Z,5.18
2023-03-16T17:29:16.703Z,4.10
2023-03-16T17:31:44.546Z,4.07
2023-03-16T17:34:22.513Z,4.70
2023-03-16T17:36:49.600Z,4.20
2023-03-16T17:39:24.979Z,4.75
2023-03-16T17:41:56.043Z,4.25
2023-03-16T17:44:22.731Z,5.25
2023-03-16T17:46:49.354Z,4.80
2023-03-16T17:49:18.300Z,4.88
2023-03-16T17:51:46.597Z,4.93
2023-03-16T17:54:15.810Z,5.05
2023-03-16T17:56:42.602Z,5.55
2023-03-16T17:59:21.703Z,5.50
2023-03-16T18:01:48.539Z,4.78
2023-03-16T18:04:21.174Z,4.88
2023-03-16T18:06:48.178Z,5.13
2023-03-16T18:09:19.267Z,4.80
2023-03-16T18:11:49.920Z,4.97
2023-03-16T18:14:26.496Z,5.28
2023-03-16T18:16:54.639Z,4.82
2023-03-16T18:19:24.804Z,4.97
2023-03-16T18:21:53.649Z,7.47
2023-03-16T18:24:22.199Z,6.47
2023-03-16T18:26:49.029Z,6.38
2023-03-16T18:29:15.547Z,5.35
2023-03-16T18:31:42.889Z,4.30
2023-03-16T18:34:21.154Z,4.13
2023-03-16T18:36:47.646Z,4.27
2023-03-16T18:39:21.343Z,4.43
2023-03-16T18:41:48.234Z,3.90
2023-03-16T18:44:21.055Z,3.88
2023-03-16T18:46:50.108Z,4.32
2023-03-16T18:49:33.893Z,4.43
2023-03-16T18:52:00.865Z,4.38
2023-03-16T18:54:30.777Z,4.45
2023-03-16T18:57:04.260Z,4.15
2023-03-16T18:59:32.228Z,4.80
2023-03-16T19:01:58.899Z,4.60
2023-03-16T19:04:29.371Z,4.90
2023-03-16T19:06:56.869Z,5.45
2023-03-16T19:09:31.896Z,5.15
2023-03-16T19:11:59.449Z,5.85
2023-03-16T19:14:28.391Z,6.20
2023-03-16T19:16:55.432Z,5.72
2023-03-16T19:19:23.417Z,5.38
2023-03-16T19:21:53.886Z,5.55
2023-03-16T19:24:29.989Z,5.47
2023-03-16T19:26:57.052Z,5.43
2023-03-16T19:29:31.055Z,5.50
2023-03-16T19:31:58.746Z,4.50
2023-03-16T19:34:25.293Z,5.45
2023-03-16T19:36:52.681Z,4.90
2023-03-16T19:39:19.589Z,5.47
2023-03-16T19:41:49.840Z,5.07
2023-03-16T19:44:25.472Z,4.65
2023-03-16T19:46:52.682Z,5.53
2023-03-16T19:49:24.362Z,5.63
2023-03-16T19:51:53.117Z,4.80
2023-03-16T19:54:33.918Z,4.55
2023-03-16T19:57:07.144Z,5.05
2023-03-16T19:59:34.922Z,4.88
2023-03-16T20:02:01.641Z,4.93
2023-03-16T20:04:28.262Z,4.90
2023-03-16T20:06:54.846Z,4.93
2023-03-16T20:09:22.878Z,5.80
2023-03-16T20:11:49.987Z,7.60
2023-03-16T20:14:34.405Z,6.15
2023-03-16T20:17:01.105Z,5.33
2023-03-16T20:19:28.643Z,5.80
2023-03-16T20:21:55.378Z,5.38
2023-03-16T20:24:22.228Z,5.30
2023-03-16T20:26:51.412Z,4.88
2023-03-16T20:29:29.594Z,5.17
2023-03-16T20:31:56.858Z,4.78
2023-03-16T20:34:26.697Z,4.50
2023-03-16T20:36:53.584Z,5.05
2023-03-16T20:39:20.134Z,5.45
2023-03-16T20:41:46.750Z,6.43
2023-03-16T20:44:19.330Z,6.10
2023-03-16T20:46:47.037Z,6.18
2023-03-16T20:49:22.782Z,5.40
2023-03-16T20:51:50.398Z,4.95
2023-03-16T20:54:17.829Z,6.10
2023-03-16T20:56:44.619Z,6.32
2023-03-16T20:59:17.801Z,6.90
2023-03-16T21:01:45.606Z,6.40
2023-03-16T21:04:26.185Z,6.97
2023-03-16T21:06:53.659Z,5.97
2023-03-16T21:09:21.518Z,5.72
2023-03-16T21:11:48.689Z,5.55
2023-03-16T21:14:26.308Z,5.32
2023-03-16T21:16:54.050Z,5.65
2023-03-16T21:19:24.206Z,5.90
2023-03-16T21:21:51.461Z,5.30
2023-03-16T21:24:17.951Z,5.63
2023-03-16T21:26:45.027Z,5.53
2023-03-16T21:29:16.342Z,5.60
2023-03-16T21:31:43.682Z,5.67
2023-03-16T21:34:26.230Z,5.47
2023-03-16T21:36:52.799Z,6.00
2023-03-16T21:39:22.457Z,6.18
2023-03-16T21:41:50.774Z,5.03
2023-03-16T21:44:17.436Z,5.67
2023-03-16T21:46:47.474Z,5.10
2023-03-16T21:49:14.755Z,5.07
2023-03-16T21:51:43.335Z,5.05
2023-03-16T21:54:14.895Z,5.53
2023-03-16T21:56:42.414Z,5.43
2023-03-16T21:59:09.085Z,5.65
2023-03-16T22:01:44.899Z,5.40
2023-03-16T22:04:17.799Z,4.65
2023-03-16T22:06:46.023Z,5.00
2023-03-16T22:09:20.841Z,4.53
2023-03-16T22:11:47.459Z,4.65
2023-03-16T22:14:13.901Z,5.03
2023-03-16T22:16:41.439Z,4.70
2023-03-16T22:19:13.509Z,4.10
2023-03-16T22:21:42.779Z,4.77
2023-03-16T22:24:19.113Z,4.88
2023-03-16T22:26:46.911Z,5.25
2023-03-16T22:29:26.679Z,5.18
2023-03-16T22:31:59.610Z,5.30
2023-03-16T22:34:32.930Z,5.63
2023-03-16T22:37:01.337Z,5.32
2023-03-16T22:39:35.055Z,6.25
2023-03-16T22:42:01.746Z,5.30
2023-03-16T22:44:28.338Z,6.25
2023-03-16T22:46:54.793Z,6.03
2023-03-16T22:49:27.462Z,5.65
2023-03-16T22:51:56.544Z,5.47
2023-03-16T22:54:27.085Z,6.03
2023-03-16T22:56:53.803Z,5.72
2023-03-16T22:59:24.549Z,5.07
2023-03-16T23:01:51.115Z,5.80
2023-03-16T23:04:20.989Z,5.75
2023-03-16T23:06:49.469Z,5.53
2023-03-16T23:09:18.430Z,5.32
2023-03-16T23:11:47.438Z,5.50
2023-03-16T23:14:27.277Z,5.28
2023-03-16T23:16:54.085Z,4.63
2023-03-16T23:19:30.806Z,5.25
2023-03-16T23:22:00.746Z,5.00
2023-03-16T23:24:27.571Z,4.80
2023-03-16T23:26:54.669Z,4.88
2023-03-16T23:29:22.542Z,4.30
2023-03-16T23:31:49.170Z,5.22
2023-03-16T23:34:18.978Z,4.43
2023-03-16T23:36:45.698Z,4.60
2023-03-16T23:39:12.781Z,5.15
2023-03-16T23:41:43.081Z,4.97
2023-03-16T23:44:17.151Z,4.68
2023-03-16T23:46:43.653Z,4.43
2023-03-16T23:49:20.244Z,4.10
2023-03-16T23:51:46.977Z,4.63
2023-03-16T23:54:19.926Z,4.30
2023-03-16T23:56:46.606Z,4.30
2023-03-16T23:59:13.155Z,4.03
